Greeneville, Tennessee
Current Conditions -  °F | °C
As of 10:55 PM on Thursday 18 Dec 2014 (Local Time) from KMOR Reporting Station
Overcast Overcast  
Wind Chill: 41°   Ceiling: 4200
Heat Index: 41°   Visibility: 10mi
Dew Point: 28°   Wind: 3mph
Humidity: 61%   Direction: 280°W
Pressure: 30.17"   Gusts: NA
Location:  36.16°N, 82.83°W
Report Text: KMOR 190355Z AUTO 28003KT 10SM OVC042 05/M02 A3017 RMK
Loading
Personal Weather Stations






























Interactive Weather Map New forecast layout! Learn more

10-Day Weather Forecast

Advertisements
Track Severe Weather on mobile